sensor_id;sensor_type;location;lat;lon;timestamp;pressure;altitude;pressure_sealevel;temperature;humidity
46379;BME280;32084;42.254;22.744;2022-10-22T00:02:02;96092.53;;;9.60;63.07
46379;BME280;32084;42.254;22.744;2022-10-22T00:04:30;96091.25;;;9.33;64.09
46379;BME280;32084;42.254;22.744;2022-10-22T00:06:56;96094.16;;;9.09;64.69
46379;BME280;32084;42.254;22.744;2022-10-22T00:09:22;96087.66;;;9.02;65.71
46379;BME280;32084;42.254;22.744;2022-10-22T00:11:49;96085.50;;;9.38;63.88
46379;BME280;32084;42.254;22.744;2022-10-22T00:14:15;96086.56;;;9.47;63.23
46379;BME280;32084;42.254;22.744;2022-10-22T00:16:41;96091.03;;;9.46;63.02
46379;BME280;32084;42.254;22.744;2022-10-22T00:19:07;96088.56;;;9.12;64.69
46379;BME280;32084;42.254;22.744;2022-10-22T00:21:34;96089.34;;;9.03;65.62
46379;BME280;32084;42.254;22.744;2022-10-22T00:24:00;96083.84;;;8.84;65.78
46379;BME280;32084;42.254;22.744;2022-10-22T00:26:26;96081.34;;;9.03;65.26
46379;BME280;32084;42.254;22.744;2022-10-22T00:28:52;96084.56;;;9.39;63.96
46379;BME280;32084;42.254;22.744;2022-10-22T00:31:18;96087.53;;;9.25;64.14
46379;BME280;32084;42.254;22.744;2022-10-22T00:33:45;96073.28;;;9.14;64.22
46379;BME280;32084;42.254;22.744;2022-10-22T00:36:11;96075.44;;;8.99;64.31
46379;BME280;32084;42.254;22.744;2022-10-22T00:38:38;96073.59;;;9.00;64.39
46379;BME280;32084;42.254;22.744;2022-10-22T00:41:04;96074.41;;;8.79;65.24
46379;BME280;32084;42.254;22.744;2022-10-22T00:43:30;96073.25;;;8.61;66.29
46379;BME280;32084;42.254;22.744;2022-10-22T00:45:56;96082.88;;;8.85;65.23
46379;BME280;32084;42.254;22.744;2022-10-22T00:48:24;96078.47;;;8.95;64.67
46379;BME280;32084;42.254;22.744;2022-10-22T00:50:59;96075.31;;;9.22;63.21
46379;BME280;32084;42.254;22.744;2022-10-22T00:53:30;96080.63;;;9.01;63.82
46379;BME280;32084;42.254;22.744;2022-10-22T00:55:59;96073.19;;;8.51;65.90
46379;BME280;32084;42.254;22.744;2022-10-22T00:58:26;96071.66;;;8.70;65.40
46379;BME280;32084;42.254;22.744;2022-10-22T01:00:53;96073.84;;;8.97;64.42
46379;BME280;32084;42.254;22.744;2022-10-22T01:03:19;96081.13;;;8.95;64.14
46379;BME280;32084;42.254;22.744;2022-10-22T01:05:49;96080.13;;;8.75;64.26
46379;BME280;32084;42.254;22.744;2022-10-22T01:14:40;96066.97;;;8.62;64.73
46379;BME280;32084;42.254;22.744;2022-10-22T01:16:38;96072.38;;;8.72;64.67
46379;BME280;32084;42.254;22.744;2022-10-22T01:21:52;96068.44;;;8.87;65.12
46379;BME280;32084;42.254;22.744;2022-10-22T01:27:19;96056.34;;;8.51;66.12
46379;BME280;32084;42.254;22.744;2022-10-22T01:30:07;96049.38;;;8.71;65.35
46379;BME280;32084;42.254;22.744;2022-10-22T01:32:38;96048.78;;;8.67;65.16
46379;BME280;32084;42.254;22.744;2022-10-22T01:35:06;96053.56;;;8.85;64.13
46379;BME280;32084;42.254;22.744;2022-10-22T01:37:36;96048.03;;;8.97;63.63
46379;BME280;32084;42.254;22.744;2022-10-22T01:40:05;96037.44;;;8.54;65.47
46379;BME280;32084;42.254;22.744;2022-10-22T01:42:32;96040.50;;;8.27;66.77
46379;BME280;32084;42.254;22.744;2022-10-22T01:44:58;96033.47;;;8.48;66.52
46379;BME280;32084;42.254;22.744;2022-10-22T01:55:11;96039.03;;;8.77;63.66
46379;BME280;32084;42.254;22.744;2022-10-22T01:57:53;96029.16;;;8.89;63.49
46379;BME280;32084;42.254;22.744;2022-10-22T02:00:24;96031.16;;;8.97;62.66
46379;BME280;32084;42.254;22.744;2022-10-22T02:03:04;96045.09;;;8.47;64.81
46379;BME280;32084;42.254;22.744;2022-10-22T02:06:07;96046.78;;;8.37;65.12
46379;BME280;32084;42.254;22.744;2022-10-22T02:08:28;96056.13;;;8.31;65.26
46379;BME280;32084;42.254;22.744;2022-10-22T02:10:55;96049.22;;;8.29;65.09
46379;BME280;32084;42.254;22.744;2022-10-22T02:13:42;96044.25;;;8.47;64.00
46379;BME280;32084;42.254;22.744;2022-10-22T02:16:09;96046.47;;;8.63;64.01
46379;BME280;32084;42.254;22.744;2022-10-22T02:18:38;96043.53;;;8.33;65.18
46379;BME280;32084;42.254;22.744;2022-10-22T02:21:05;96048.34;;;8.39;64.74
46379;BME280;32084;42.254;22.744;2022-10-22T02:23:31;96044.59;;;8.31;64.65
46379;BME280;32084;42.254;22.744;2022-10-22T02:26:08;96036.72;;;8.40;64.01
46379;BME280;32084;42.254;22.744;2022-10-22T02:31:05;96035.63;;;8.54;63.66
46379;BME280;32084;42.254;22.744;2022-10-22T02:33:34;96027.75;;;8.53;63.49
46379;BME280;32084;42.254;22.744;2022-10-22T02:36:03;96023.19;;;8.21;65.46
46379;BME280;32084;42.254;22.744;2022-10-22T02:38:30;96023.97;;;8.00;66.52
46379;BME280;32084;42.254;22.744;2022-10-22T02:40:56;96025.94;;;8.31;64.93
46379;BME280;32084;42.254;22.744;2022-10-22T02:43:23;96026.28;;;7.94;66.56
46379;BME280;32084;42.254;22.744;2022-10-22T02:45:49;96030.47;;;8.19;65.46
46379;BME280;32084;42.254;22.744;2022-10-22T02:48:16;96039.16;;;8.44;64.61
46379;BME280;32084;42.254;22.744;2022-10-22T02:50:42;96041.28;;;8.61;63.25
46379;BME280;32084;42.254;22.744;2022-10-22T02:53:08;96043.72;;;8.53;63.61
46379;BME280;32084;42.254;22.744;2022-10-22T02:55:34;96050.09;;;8.29;64.60
46379;BME280;32084;42.254;22.744;2022-10-22T02:58:00;96050.94;;;8.30;64.58
46379;BME280;32084;42.254;22.744;2022-10-22T03:00:26;96051.13;;;8.38;64.16
46379;BME280;32084;42.254;22.744;2022-10-22T03:02:52;96052.88;;;8.28;64.38
46379;BME280;32084;42.254;22.744;2022-10-22T03:05:18;96053.94;;;8.25;64.55
46379;BME280;32084;42.254;22.744;2022-10-22T03:07:44;96059.28;;;8.25;63.97
46379;BME280;32084;42.254;22.744;2022-10-22T03:10:10;96061.59;;;8.30;63.57
46379;BME280;32084;42.254;22.744;2022-10-22T03:12:36;96070.56;;;8.17;63.65
46379;BME280;32084;42.254;22.744;2022-10-22T03:15:02;96078.09;;;8.01;64.31
46379;BME280;32084;42.254;22.744;2022-10-22T03:17:28;96076.88;;;7.94;64.66
46379;BME280;32084;42.254;22.744;2022-10-22T03:19:54;96065.00;;;8.20;63.53
46379;BME280;32084;42.254;22.744;2022-10-22T03:22:27;96065.00;;;8.09;63.85
46379;BME280;32084;42.254;22.744;2022-10-22T03:24:54;96077.38;;;8.10;64.06
46379;BME280;32084;42.254;22.744;2022-10-22T03:27:23;96070.69;;;8.27;63.01
46379;BME280;32084;42.254;22.744;2022-10-22T03:29:50;96074.19;;;8.16;63.68
46379;BME280;32084;42.254;22.744;2022-10-22T03:32:17;96074.09;;;8.18;63.53
46379;BME280;32084;42.254;22.744;2022-10-22T03:34:43;96068.53;;;7.98;64.43
46379;BME280;32084;42.254;22.744;2022-10-22T03:37:09;96056.69;;;7.80;65.63
46379;BME280;32084;42.254;22.744;2022-10-22T03:39:36;96059.09;;;7.60;66.95
46379;BME280;32084;42.254;22.744;2022-10-22T03:42:03;96056.44;;;7.72;66.55
46379;BME280;32084;42.254;22.744;2022-10-22T03:44:30;96071.78;;;8.02;65.04
46379;BME280;32084;42.254;22.744;2022-10-22T03:46:56;96070.22;;;7.99;64.85
46379;BME280;32084;42.254;22.744;2022-10-22T03:49:22;96060.69;;;7.86;65.24
46379;BME280;32084;42.254;22.744;2022-10-22T03:51:48;96052.59;;;7.65;66.12
46379;BME280;32084;42.254;22.744;2022-10-22T03:54:15;96057.16;;;7.85;65.55
46379;BME280;32084;42.254;22.744;2022-10-22T03:56:41;96056.41;;;8.06;64.41
46379;BME280;32084;42.254;22.744;2022-10-22T03:59:07;96054.00;;;8.02;64.11
46379;BME280;32084;42.254;22.744;2022-10-22T04:01:33;96047.50;;;7.84;64.62
46379;BME280;32084;42.254;22.744;2022-10-22T04:03:59;96047.34;;;8.08;63.51
46379;BME280;32084;42.254;22.744;2022-10-22T04:06:25;96042.13;;;8.18;62.82
46379;BME280;32084;42.254;22.744;2022-10-22T04:08:51;96040.94;;;7.99;63.67
46379;BME280;32084;42.254;22.744;2022-10-22T04:11:17;96047.22;;;7.87;64.37
46379;BME280;32084;42.254;22.744;2022-10-22T04:13:43;96041.94;;;7.65;65.74
46379;BME280;32084;42.254;22.744;2022-10-22T04:16:09;96042.28;;;7.37;67.01
46379;BME280;32084;42.254;22.744;2022-10-22T04:18:36;96029.59;;;7.63;66.39
46379;BME280;32084;42.254;22.744;2022-10-22T04:21:03;96033.19;;;7.74;65.38
46379;BME280;32084;42.254;22.744;2022-10-22T04:23:29;96036.84;;;7.84;64.69
46379;BME280;32084;42.254;22.744;2022-10-22T04:25:58;96030.50;;;7.96;63.94
46379;BME280;32084;42.254;22.744;2022-10-22T04:28:25;96033.97;;;7.76;65.06
46379;BME280;32084;42.254;22.744;2022-10-22T04:30:51;96040.47;;;7.60;65.77
46379;BME280;32084;42.254;22.744;2022-10-22T04:33:17;96045.44;;;7.54;66.15
46379;BME280;32084;42.254;22.744;2022-10-22T04:35:43;96044.94;;;7.49;66.21
46379;BME280;32084;42.254;22.744;2022-10-22T04:38:09;96050.50;;;7.79;64.79
46379;BME280;32084;42.254;22.744;2022-10-22T04:40:35;96052.31;;;7.90;64.06
46379;BME280;32084;42.254;22.744;2022-10-22T04:43:01;96038.41;;;7.75;64.31
46379;BME280;32084;42.254;22.744;2022-10-22T04:45:28;96040.47;;;7.83;64.07
46379;BME280;32084;42.254;22.744;2022-10-22T04:47:54;96042.53;;;7.46;65.99
46379;BME280;32084;42.254;22.744;2022-10-22T04:50:20;96040.44;;;7.38;66.13
46379;BME280;32084;42.254;22.744;2022-10-22T04:52:46;96037.53;;;7.18;67.37
46379;BME280;32084;42.254;22.744;2022-10-22T04:55:12;96030.81;;;7.48;66.10
46379;BME280;32084;42.254;22.744;2022-10-22T04:57:38;96041.69;;;7.68;65.32
46379;BME280;32084;42.254;22.744;2022-10-22T05:00:04;96043.63;;;7.88;63.85
46379;BME280;32084;42.254;22.744;2022-10-22T05:02:31;96038.19;;;7.78;63.88
46379;BME280;32084;42.254;22.744;2022-10-22T05:04:57;96046.41;;;7.64;64.87
46379;BME280;32084;42.254;22.744;2022-10-22T05:07:23;96041.19;;;7.74;64.52
46379;BME280;32084;42.254;22.744;2022-10-22T05:09:50;96042.78;;;7.42;66.09
46379;BME280;32084;42.254;22.744;2022-10-22T05:12:16;96044.34;;;7.68;65.42
46379;BME280;32084;42.254;22.744;2022-10-22T05:14:42;96045.06;;;7.58;65.83
46379;BME280;32084;42.254;22.744;2022-10-22T05:17:08;96049.44;;;7.59;65.86
46379;BME280;32084;42.254;22.744;2022-10-22T05:19:34;96058.63;;;7.78;65.12
46379;BME280;32084;42.254;22.744;2022-10-22T05:22:01;96061.13;;;8.02;64.07
46379;BME280;32084;42.254;22.744;2022-10-22T05:24:30;96057.63;;;8.13;63.99
46379;BME280;32084;42.254;22.744;2022-10-22T05:26:56;96065.88;;;7.87;65.13
46379;BME280;32084;42.254;22.744;2022-10-22T05:29:23;96065.63;;;7.79;65.64
46379;BME280;32084;42.254;22.744;2022-10-22T05:31:50;96062.03;;;7.69;66.07
46379;BME280;32084;42.254;22.744;2022-10-22T05:34:16;96055.22;;;7.98;65.07
46379;BME280;32084;42.254;22.744;2022-10-22T05:36:42;96051.06;;;8.17;65.01
46379;BME280;32084;42.254;22.744;2022-10-22T05:39:08;96049.66;;;8.01;65.81
46379;BME280;32084;42.254;22.744;2022-10-22T05:41:35;96054.44;;;8.30;65.27
46379;BME280;32084;42.254;22.744;2022-10-22T05:44:01;96059.72;;;8.53;64.68
46379;BME280;32084;42.254;22.744;2022-10-22T05:46:29;96058.38;;;8.58;64.85
46379;BME280;32084;42.254;22.744;2022-10-22T05:49:00;96061.56;;;8.52;65.73
46379;BME280;32084;42.254;22.744;2022-10-22T05:51:27;96059.25;;;8.80;65.25
46379;BME280;32084;42.254;22.744;2022-10-22T05:53:54;96068.25;;;9.00;64.90
46379;BME280;32084;42.254;22.744;2022-10-22T05:56:21;96073.59;;;9.00;65.35
46379;BME280;32084;42.254;22.744;2022-10-22T05:58:48;96058.91;;;9.06;66.18
46379;BME280;32084;42.254;22.744;2022-10-22T06:01:16;96054.28;;;9.29;65.56
46379;BME280;32084;42.254;22.744;2022-10-22T06:03:43;96059.53;;;9.40;65.35
46379;BME280;32084;42.254;22.744;2022-10-22T06:08:41;96068.19;;;9.32;66.34
46379;BME280;32084;42.254;22.744;2022-10-22T06:11:07;96069.44;;;9.07;66.89
46379;BME280;32084;42.254;22.744;2022-10-22T06:13:33;96071.19;;;9.18;66.26
46379;BME280;32084;42.254;22.744;2022-10-22T06:15:59;96070.47;;;9.37;65.28
46379;BME280;32084;42.254;22.744;2022-10-22T06:18:26;96072.31;;;9.15;66.33
46379;BME280;32084;42.254;22.744;2022-10-22T06:20:52;96077.16;;;9.31;65.83
46379;BME280;32084;42.254;22.744;2022-10-22T06:23:18;96074.72;;;9.40;65.30
46379;BME280;32084;42.254;22.744;2022-10-22T06:25:54;96084.69;;;9.16;66.39
46379;BME280;32084;42.254;22.744;2022-10-22T06:28:20;96082.78;;;9.07;67.41
46379;BME280;32084;42.254;22.744;2022-10-22T06:30:46;96082.25;;;9.13;67.88
46379;BME280;32084;42.254;22.744;2022-10-22T06:33:12;96082.78;;;9.28;67.49
46379;BME280;32084;42.254;22.744;2022-10-22T06:35:39;96084.91;;;9.55;66.28
46379;BME280;32084;42.254;22.744;2022-10-22T06:38:10;96082.16;;;9.67;66.55
46379;BME280;32084;42.254;22.744;2022-10-22T06:40:36;96071.19;;;9.60;66.74
46379;BME280;32084;42.254;22.744;2022-10-22T06:43:03;96066.63;;;9.51;66.42
46379;BME280;32084;42.254;22.744;2022-10-22T06:45:30;96076.56;;;9.70;66.79
46379;BME280;32084;42.254;22.744;2022-10-22T06:47:57;96068.28;;;10.04;66.08
46379;BME280;32084;42.254;22.744;2022-10-22T06:50:23;96074.06;;;10.19;65.82
46379;BME280;32084;42.254;22.744;2022-10-22T06:52:49;96090.59;;;10.33;65.66
46379;BME280;32084;42.254;22.744;2022-10-22T06:55:15;96088.50;;;10.37;65.93
46379;BME280;32084;42.254;22.744;2022-10-22T06:57:41;96083.34;;;10.55;64.61
46379;BME280;32084;42.254;22.744;2022-10-22T07:00:08;96094.50;;;10.70;64.93
46379;BME280;32084;42.254;22.744;2022-10-22T07:02:34;96088.16;;;10.71;65.35
46379;BME280;32084;42.254;22.744;2022-10-22T07:05:00;96081.13;;;10.70;65.40
46379;BME280;32084;42.254;22.744;2022-10-22T07:07:26;96076.63;;;10.90;65.02
46379;BME280;32084;42.254;22.744;2022-10-22T07:09:52;96082.28;;;10.97;65.00
46379;BME280;32084;42.254;22.744;2022-10-22T07:12:18;96081.00;;;11.01;65.29
46379;BME280;32084;42.254;22.744;2022-10-22T07:14:45;96075.06;;;11.07;65.27
46379;BME280;32084;42.254;22.744;2022-10-22T07:17:11;96080.28;;;11.18;65.02
46379;BME280;32084;42.254;22.744;2022-10-22T07:19:36;96084.22;;;11.14;65.27
46379;BME280;32084;42.254;22.744;2022-10-22T07:22:02;96088.31;;;11.28;65.16
46379;BME280;32084;42.254;22.744;2022-10-22T07:24:28;96082.53;;;11.32;65.15
46379;BME280;32084;42.254;22.744;2022-10-22T07:26:54;96085.03;;;11.44;64.88
46379;BME280;32084;42.254;22.744;2022-10-22T07:29:20;96075.56;;;11.69;64.51
46379;BME280;32084;42.254;22.744;2022-10-22T07:31:47;96081.84;;;11.78;64.71
46379;BME280;32084;42.254;22.744;2022-10-22T07:34:13;96074.91;;;11.85;63.73
46379;BME280;32084;42.254;22.744;2022-10-22T07:36:39;96084.66;;;11.86;64.08
46379;BME280;32084;42.254;22.744;2022-10-22T07:39:05;96078.16;;;11.98;64.30
46379;BME280;32084;42.254;22.744;2022-10-22T07:41:31;96079.94;;;12.07;63.95
46379;BME280;32084;42.254;22.744;2022-10-22T07:43:57;96082.91;;;12.04;63.62
46379;BME280;32084;42.254;22.744;2022-10-22T07:46:24;96079.22;;;12.15;63.41
46379;BME280;32084;42.254;22.744;2022-10-22T07:48:50;96083.69;;;12.24;62.91
46379;BME280;32084;42.254;22.744;2022-10-22T07:51:16;96072.91;;;12.34;62.51
46379;BME280;32084;42.254;22.744;2022-10-22T07:53:42;96074.63;;;12.53;61.52
46379;BME280;32084;42.254;22.744;2022-10-22T07:56:09;96074.97;;;12.68;61.30
46379;BME280;32084;42.254;22.744;2022-10-22T07:58:35;96066.69;;;12.97;60.57
46379;BME280;32084;42.254;22.744;2022-10-22T08:01:02;96070.16;;;13.07;60.35
46379;BME280;32084;42.254;22.744;2022-10-22T08:03:30;96065.09;;;12.86;61.26
46379;BME280;32084;42.254;22.744;2022-10-22T08:05:56;96066.22;;;12.66;62.00
46379;BME280;32084;42.254;22.744;2022-10-22T08:08:23;96064.31;;;12.76;61.73
46379;BME280;32084;42.254;22.744;2022-10-22T08:10:50;96064.53;;;13.37;60.74
46379;BME280;32084;42.254;22.744;2022-10-22T08:13:17;96052.84;;;13.64;59.58
46379;BME280;32084;42.254;22.744;2022-10-22T08:15:44;96055.94;;;13.51;59.86
46379;BME280;32084;42.254;22.744;2022-10-22T08:18:11;96044.75;;;13.38;60.22
46379;BME280;32084;42.254;22.744;2022-10-22T08:20:37;96047.28;;;13.21;59.60
46379;BME280;32084;42.254;22.744;2022-10-22T08:23:04;96037.47;;;13.12;59.30
46379;BME280;32084;42.254;22.744;2022-10-22T08:25:30;96035.94;;;13.54;58.29
46379;BME280;32084;42.254;22.744;2022-10-22T08:27:57;96026.50;;;14.02;57.16
46379;BME280;32084;42.254;22.744;2022-10-22T08:30:23;96033.72;;;14.44;55.35
46379;BME280;32084;42.254;22.744;2022-10-22T08:32:52;96031.44;;;14.74;54.95
46379;BME280;32084;42.254;22.744;2022-10-22T08:35:18;96036.88;;;14.98;54.26
46379;BME280;32084;42.254;22.744;2022-10-22T08:37:45;96040.44;;;15.23;54.38
46379;BME280;32084;42.254;22.744;2022-10-22T08:40:19;96035.38;;;15.45;54.04
46379;BME280;32084;42.254;22.744;2022-10-22T08:45:27;96034.59;;;16.00;52.23
46379;BME280;32084;42.254;22.744;2022-10-22T08:51:18;96052.53;;;16.41;51.19
46379;BME280;32084;42.254;22.744;2022-10-22T08:53:57;96055.78;;;16.59;50.93
46379;BME280;32084;42.254;22.744;2022-10-22T08:56:26;96057.25;;;16.70;50.51
46379;BME280;32084;42.254;22.744;2022-10-22T08:59:00;96052.19;;;16.75;51.33
46379;BME280;32084;42.254;22.744;2022-10-22T09:01:34;96050.13;;;16.77;51.07
46379;BME280;32084;42.254;22.744;2022-10-22T09:06:50;96050.97;;;17.32;49.20
46379;BME280;32084;42.254;22.744;2022-10-22T09:09:17;96045.97;;;17.44;48.22
46379;BME280;32084;42.254;22.744;2022-10-22T09:11:45;96040.91;;;18.02;47.35
46379;BME280;32084;42.254;22.744;2022-10-22T09:14:13;96036.56;;;18.23;46.46
46379;BME280;32084;42.254;22.744;2022-10-22T09:22:39;96010.59;;;18.43;46.73
46379;BME280;32084;42.254;22.744;2022-10-22T09:25:11;96004.81;;;18.46;46.83
46379;BME280;32084;42.254;22.744;2022-10-22T09:27:40;95996.53;;;18.33;46.69
46379;BME280;32084;42.254;22.744;2022-10-22T09:30:10;95997.78;;;18.16;47.35
46379;BME280;32084;42.254;22.744;2022-10-22T09:32:39;95992.16;;;18.17;47.84
46379;BME280;32084;42.254;22.744;2022-10-22T09:35:08;95986.50;;;17.97;47.99
46379;BME280;32084;42.254;22.744;2022-10-22T09:37:34;95982.59;;;17.62;48.23
46379;BME280;32084;42.254;22.744;2022-10-22T09:40:02;95977.91;;;17.41;49.35
46379;BME280;32084;42.254;22.744;2022-10-22T09:42:29;95975.84;;;17.05;50.85
46379;BME280;32084;42.254;22.744;2022-10-22T09:44:58;95976.56;;;16.75;51.68
46379;BME280;32084;42.254;22.744;2022-10-22T09:47:28;95966.59;;;16.45;53.05
46379;BME280;32084;42.254;22.744;2022-10-22T09:52:37;95962.72;;;15.76;54.96
46379;BME280;32084;42.254;22.744;2022-10-22T09:55:12;95946.91;;;15.65;54.79
46379;BME280;32084;42.254;22.744;2022-10-22T09:57:38;95954.97;;;15.65;55.34
46379;BME280;32084;42.254;22.744;2022-10-22T10:00:07;95950.94;;;15.61;55.60
46379;BME280;32084;42.254;22.744;2022-10-22T10:02:33;95940.47;;;15.66;55.94
46379;BME280;32084;42.254;22.744;2022-10-22T10:05:01;95943.16;;;15.74;55.02
46379;BME280;32084;42.254;22.744;2022-10-22T10:07:31;95928.50;;;15.77;55.23
46379;BME280;32084;42.254;22.744;2022-10-22T10:09:57;95934.53;;;15.87;54.88
46379;BME280;32084;42.254;22.744;2022-10-22T10:12:28;95931.31;;;15.92;55.22
46379;BME280;32084;42.254;22.744;2022-10-22T10:30:47;95914.31;;;16.23;54.77
46379;BME280;32084;42.254;22.744;2022-10-22T10:40:59;95902.13;;;16.27;55.57
46379;BME280;32084;42.254;22.744;2022-10-22T10:43:32;95895.53;;;16.29;54.30
46379;BME280;32084;42.254;22.744;2022-10-22T10:47:06;95901.59;;;16.31;54.82
46379;BME280;32084;42.254;22.744;2022-10-22T10:48:58;95887.03;;;16.40;54.43
46379;BME280;32084;42.254;22.744;2022-10-22T10:54:34;95877.19;;;16.48;54.67
46379;BME280;32084;42.254;22.744;2022-10-22T10:57:03;95875.97;;;16.50;54.89
46379;BME280;32084;42.254;22.744;2022-10-22T11:07:16;95862.28;;;16.75;55.08
46379;BME280;32084;42.254;22.744;2022-10-22T11:09:45;95847.22;;;16.81;54.78
46379;BME280;32084;42.254;22.744;2022-10-22T11:12:16;95848.91;;;16.82;55.55
46379;BME280;32084;42.254;22.744;2022-10-22T11:14:51;95834.50;;;16.89;54.81
46379;BME280;32084;42.254;22.744;2022-10-22T11:17:22;95830.81;;;16.90;55.59
46379;BME280;32084;42.254;22.744;2022-10-22T11:19:51;95824.47;;;16.98;54.86
46379;BME280;32084;42.254;22.744;2022-10-22T11:22:23;95825.78;;;17.02;55.84
46379;BME280;32084;42.254;22.744;2022-10-22T11:30:03;95813.09;;;17.03;55.94
46379;BME280;32084;42.254;22.744;2022-10-22T11:32:30;95800.91;;;17.07;55.41
46379;BME280;32084;42.254;22.744;2022-10-22T11:34:57;95789.44;;;17.20;55.52
46379;BME280;32084;42.254;22.744;2022-10-22T11:37:25;95785.16;;;17.25;55.39
46379;BME280;32084;42.254;22.744;2022-10-22T11:40:00;95784.31;;;17.40;55.10
46379;BME280;32084;42.254;22.744;2022-10-22T11:42:31;95783.81;;;17.51;55.04
46379;BME280;32084;42.254;22.744;2022-10-22T11:45:04;95779.16;;;17.45;53.99
46379;BME280;32084;42.254;22.744;2022-10-22T11:47:32;95780.88;;;17.46;54.67
46379;BME280;32084;42.254;22.744;2022-10-22T11:50:02;95772.50;;;17.62;54.12
46379;BME280;32084;42.254;22.744;2022-10-22T11:52:46;95775.31;;;17.69;54.72
46379;BME280;32084;42.254;22.744;2022-10-22T11:55:56;95766.44;;;17.75;53.62
46379;BME280;32084;42.254;22.744;2022-10-22T11:58:22;95767.19;;;17.69;53.98
46379;BME280;32084;42.254;22.744;2022-10-22T12:00:49;95763.16;;;17.80;53.55
46379;BME280;32084;42.254;22.744;2022-10-22T12:03:22;95753.91;;;17.89;53.08
46379;BME280;32084;42.254;22.744;2022-10-22T12:06:40;95752.06;;;17.89;53.89
46379;BME280;32084;42.254;22.744;2022-10-22T12:16:14;95743.25;;;18.02;53.31
46379;BME280;32084;42.254;22.744;2022-10-22T12:18:41;95736.19;;;18.08;52.51
46379;BME280;32084;42.254;22.744;2022-10-22T12:21:12;95727.97;;;18.16;52.86
46379;BME280;32084;42.254;22.744;2022-10-22T12:23:39;95726.47;;;18.13;53.12
46379;BME280;32084;42.254;22.744;2022-10-22T12:26:05;95733.84;;;18.20;52.00
46379;BME280;32084;42.254;22.744;2022-10-22T12:28:38;95728.25;;;18.21;52.49
46379;BME280;32084;42.254;22.744;2022-10-22T12:31:05;95717.59;;;18.20;51.87
46379;BME280;32084;42.254;22.744;2022-10-22T12:33:31;95715.09;;;18.18;52.49
46379;BME280;32084;42.254;22.744;2022-10-22T12:35:57;95719.72;;;18.24;51.41
46379;BME280;32084;42.254;22.744;2022-10-22T12:38:28;95712.28;;;18.33;51.53
46379;BME280;32084;42.254;22.744;2022-10-22T12:40:55;95705.00;;;18.33;51.80
46379;BME280;32084;42.254;22.744;2022-10-22T12:43:26;95703.56;;;18.38;50.63
46379;BME280;32084;42.254;22.744;2022-10-22T12:45:53;95709.50;;;18.48;51.24
46379;BME280;32084;42.254;22.744;2022-10-22T12:50:50;95700.78;;;18.52;50.75
46379;BME280;32084;42.254;22.744;2022-10-22T12:53:29;95692.03;;;18.57;50.86
46379;BME280;32084;42.254;22.744;2022-10-22T12:55:56;95689.56;;;18.56;50.26
46379;BME280;32084;42.254;22.744;2022-10-22T12:58:26;95686.69;;;18.64;51.03
46379;BME280;32084;42.254;22.744;2022-10-22T13:00:54;95688.16;;;18.66;50.98
46379;BME280;32084;42.254;22.744;2022-10-22T13:05:51;95685.66;;;18.65;49.92
46379;BME280;32084;42.254;22.744;2022-10-22T13:08:19;95678.22;;;18.73;50.37
46379;BME280;32084;42.254;22.744;2022-10-22T13:10:50;95672.59;;;18.75;50.56
46379;BME280;32084;42.254;22.744;2022-10-22T13:13:38;95675.50;;;18.73;51.09
46379;BME280;32084;42.254;22.744;2022-10-22T13:18:39;95674.06;;;18.78;51.10
46379;BME280;32084;42.254;22.744;2022-10-22T13:21:05;95669.69;;;18.77;50.59
46379;BME280;32084;42.254;22.744;2022-10-22T13:23:32;95668.44;;;18.79;49.73
46379;BME280;32084;42.254;22.744;2022-10-22T13:26:02;95668.97;;;18.89;48.95
46379;BME280;32084;42.254;22.744;2022-10-22T13:28:31;95676.44;;;18.87;49.10
46379;BME280;32084;42.254;22.744;2022-10-22T13:30:59;95669.16;;;18.88;49.85
46379;BME280;32084;42.254;22.744;2022-10-22T13:33:26;95667.91;;;18.84;50.37
46379;BME280;32084;42.254;22.744;2022-10-22T13:35:54;95663.19;;;18.71;50.20
46379;BME280;32084;42.254;22.744;2022-10-22T13:38:22;95658.84;;;18.77;50.39
46379;BME280;32084;42.254;22.744;2022-10-22T13:40:48;95657.25;;;18.82;50.02
46379;BME280;32084;42.254;22.744;2022-10-22T13:43:15;95659.16;;;18.88;49.20
46379;BME280;32084;42.254;22.744;2022-10-22T13:45:42;95658.16;;;18.96;48.76
46379;BME280;32084;42.254;22.744;2022-10-22T13:48:15;95656.47;;;18.95;49.00
46379;BME280;32084;42.254;22.744;2022-10-22T13:50:43;95661.69;;;18.97;48.78
46379;BME280;32084;42.254;22.744;2022-10-22T13:53:14;95655.19;;;18.91;48.47
46379;BME280;32084;42.254;22.744;2022-10-22T13:55:43;95661.88;;;18.88;48.93
46379;BME280;32084;42.254;22.744;2022-10-22T13:58:13;95663.38;;;18.98;48.42
46379;BME280;32084;42.254;22.744;2022-10-22T14:00:40;95663.56;;;18.96;49.08
46379;BME280;32084;42.254;22.744;2022-10-22T14:03:11;95665.00;;;18.92;49.43
46379;BME280;32084;42.254;22.744;2022-10-22T14:05:38;95653.09;;;18.86;49.31
46379;BME280;32084;42.254;22.744;2022-10-22T14:08:08;95659.59;;;18.92;49.60
46379;BME280;32084;42.254;22.744;2022-10-22T14:10:34;95659.16;;;18.95;49.74
46379;BME280;32084;42.254;22.744;2022-10-22T14:13:00;95651.47;;;18.92;49.21
46379;BME280;32084;42.254;22.744;2022-10-22T14:15:26;95660.66;;;18.98;48.94
46379;BME280;32084;42.254;22.744;2022-10-22T14:17:54;95651.47;;;18.99;49.59
46379;BME280;32084;42.254;22.744;2022-10-22T14:20:23;95652.53;;;18.98;49.23
46379;BME280;32084;42.254;22.744;2022-10-22T14:22:50;95643.13;;;18.94;48.79
46379;BME280;32084;42.254;22.744;2022-10-22T14:25:17;95641.44;;;18.92;49.00
46379;BME280;32084;42.254;22.744;2022-10-22T14:27:43;95638.16;;;18.97;48.97
46379;BME280;32084;42.254;22.744;2022-10-22T14:30:17;95646.91;;;18.99;48.62
46379;BME280;32084;42.254;22.744;2022-10-22T14:32:43;95649.19;;;18.96;50.96
46379;BME280;32084;42.254;22.744;2022-10-22T14:35:13;95643.53;;;18.90;53.21
46379;BME280;32084;42.254;22.744;2022-10-22T14:37:39;95641.19;;;18.81;53.15